createdAt,value
2023-05-09T00:00:06.307Z,5.10
2023-05-09T00:02:54.255Z,5.10
2023-05-09T00:05:21.936Z,5.10
2023-05-09T00:07:49.619Z,5.00
2023-05-09T00:10:16.837Z,4.90
2023-05-09T00:12:44.429Z,4.90
2023-05-09T00:15:12.230Z,4.80
2023-05-09T00:17:40.376Z,4.70
2023-05-09T00:20:12.003Z,4.70
2023-05-09T00:22:42.781Z,4.70
2023-05-09T00:25:11.246Z,4.70
2023-05-09T00:27:38.733Z,4.80
2023-05-09T00:30:06.803Z,4.80
2023-05-09T00:32:34.656Z,4.70
2023-05-09T00:35:02.427Z,4.70
2023-05-09T00:37:31.531Z,4.70
2023-05-09T00:39:59.293Z,4.60
2023-05-09T00:42:26.853Z,4.60
2023-05-09T00:44:54.177Z,4.60
2023-05-09T00:47:23.899Z,4.60
2023-05-09T00:49:51.226Z,4.60
2023-05-09T00:52:23.333Z,4.60
2023-05-09T00:54:52.507Z,4.50
2023-05-09T00:57:20.539Z,4.50
2023-05-09T00:59:48.270Z,4.50
2023-05-09T01:02:17.969Z,4.50
2023-05-09T01:04:48.486Z,4.50
2023-05-09T01:07:40.351Z,4.50
2023-05-09T01:10:33.307Z,4.40
2023-05-09T01:13:24.068Z,4.40
2023-05-09T01:16:18.404Z,4.40
2023-05-09T01:18:49.079Z,4.30
2023-05-09T01:21:21.403Z,4.30
2023-05-09T01:24:48.124Z,4.30
2023-05-09T01:27:23.557Z,4.30
2023-05-09T01:29:58.271Z,4.30
2023-05-09T01:32:28.798Z,4.30
2023-05-09T01:35:00.301Z,4.30
2023-05-09T01:37:33.549Z,4.30
2023-05-09T01:40:08.517Z,4.30
2023-05-09T01:42:43.688Z,4.30
2023-05-09T01:45:12.429Z,4.30
2023-05-09T01:47:41.655Z,4.20
2023-05-09T01:50:12.012Z,4.20
2023-05-09T01:52:41.396Z,4.20
2023-05-09T01:55:10.035Z,4.20
2023-05-09T01:57:38.478Z,4.20
2023-05-09T02:00:09.168Z,4.20
2023-05-09T02:02:43.163Z,4.20
2023-05-09T02:05:12.917Z,4.10
2023-05-09T02:07:41.726Z,4.10
2023-05-09T02:10:11.459Z,4.10
2023-05-09T02:12:39.788Z,4.10
2023-05-09T02:15:08.849Z,4.10
2023-05-09T02:17:40.230Z,4.10
2023-05-09T02:20:09.940Z,4.10
2023-05-09T02:22:39.515Z,4.10
2023-05-09T02:25:08.442Z,4.10
2023-05-09T02:27:38.267Z,4.10
2023-05-09T02:30:11.246Z,4.10
2023-05-09T02:32:40.326Z,4.00
2023-05-09T02:35:09.913Z,4.00
2023-05-09T02:37:38.258Z,4.00
2023-05-09T02:40:09.252Z,4.00
2023-05-09T02:42:36.579Z,3.90
2023-05-09T02:45:04.408Z,3.90
2023-05-09T02:47:32.241Z,3.80
2023-05-09T02:49:59.629Z,3.80
2023-05-09T02:52:27.482Z,3.80
2023-05-09T02:54:55.283Z,3.80
2023-05-09T02:57:22.573Z,3.80
2023-05-09T02:59:50.276Z,3.80
2023-05-09T03:02:17.733Z,3.80
2023-05-09T03:04:45.527Z,3.80
2023-05-09T03:07:13.021Z,3.80
2023-05-09T03:09:41.307Z,3.70
2023-05-09T03:12:08.999Z,3.80
2023-05-09T03:14:37.048Z,3.80
2023-05-09T03:17:04.497Z,3.70
2023-05-09T03:19:35.644Z,3.80
2023-05-09T03:22:03.155Z,3.80
2023-05-09T03:24:34.291Z,3.90
2023-05-09T03:27:02.937Z,3.90
2023-05-09T03:29:30.799Z,4.00
2023-05-09T03:31:59.306Z,4.00
2023-05-09T03:34:26.971Z,4.10
2023-05-09T03:36:54.680Z,4.10
2023-05-09T03:39:22.416Z,4.20
2023-05-09T03:41:54.578Z,4.20
2023-05-09T03:44:22.123Z,4.30
2023-05-09T03:46:50.157Z,4.40
2023-05-09T03:49:18.030Z,4.50
2023-05-09T03:51:46.370Z,4.60
2023-05-09T03:54:16.587Z,4.70
2023-05-09T03:56:43.807Z,4.80
2023-05-09T03:59:11.313Z,4.90
2023-05-09T04:01:40.286Z,5.00
2023-05-09T04:04:09.002Z,5.10
2023-05-09T04:06:37.818Z,5.30
2023-05-09T04:09:07.688Z,5.40
2023-05-09T04:11:35.104Z,5.50
2023-05-09T04:14:07.041Z,5.70
2023-05-09T04:16:36.539Z,5.80
2023-05-09T04:19:04.327Z,6.00
2023-05-09T04:21:32.431Z,6.20
2023-05-09T04:24:02.226Z,6.30
2023-05-09T04:26:39.004Z,6.40
2023-05-09T04:29:09.639Z,6.60
2023-05-09T04:31:37.144Z,6.70
2023-05-09T04:34:06.512Z,6.90
2023-05-09T04:36:35.372Z,7.00
2023-05-09T04:39:05.265Z,7.20
2023-05-09T04:41:34.295Z,7.30
2023-05-09T04:44:02.345Z,7.40
2023-05-09T04:46:30.456Z,7.50
2023-05-09T04:48:58.440Z,7.70
2023-05-09T04:51:26.724Z,7.80
2023-05-09T04:53:54.190Z,7.90
2023-05-09T04:56:26.441Z,8.00
2023-05-09T04:58:54.149Z,8.10
2023-05-09T05:01:21.649Z,8.30
2023-05-09T05:03:50.324Z,8.40
2023-05-09T05:06:17.596Z,8.50
2023-05-09T05:08:45.133Z,8.60
2023-05-09T05:11:13.675Z,8.70
2023-05-09T05:13:41.302Z,8.80
2023-05-09T05:16:09.309Z,8.90
2023-05-09T05:18:36.934Z,9.00
2023-05-09T05:21:05.113Z,9.10
2023-05-09T05:23:32.564Z,9.20
2023-05-09T05:25:59.957Z,9.40
2023-05-09T05:28:28.494Z,9.50
2023-05-09T05:30:55.777Z,9.60
2023-05-09T05:33:23.379Z,9.70
2023-05-09T05:35:51.456Z,9.80
2023-05-09T05:38:19.345Z,9.90
2023-05-09T05:40:50.520Z,10.00
2023-05-09T05:43:18.560Z,10.00
2023-05-09T05:45:46.079Z,10.10
2023-05-09T05:48:17.783Z,10.20
2023-05-09T05:50:46.533Z,10.30
2023-05-09T05:53:16.312Z,10.40
2023-05-09T05:55:46.013Z,10.50
2023-05-09T05:58:14.179Z,10.50
2023-05-09T06:00:41.440Z,10.60
2023-05-09T06:03:14.350Z,10.70
2023-05-09T06:05:48.247Z,10.80
2023-05-09T06:08:15.927Z,10.80
2023-05-09T06:10:43.127Z,10.90
2023-05-09T06:13:11.690Z,11.00
2023-05-09T06:15:42.912Z,11.10
2023-05-09T06:18:11.381Z,11.20
2023-05-09T06:20:38.647Z,11.30
2023-05-09T06:23:06.205Z,11.40
2023-05-09T06:25:33.527Z,11.40
2023-05-09T06:28:01.101Z,11.50
2023-05-09T06:30:28.415Z,11.60
2023-05-09T06:32:57.970Z,11.60
2023-05-09T06:35:25.291Z,11.70
2023-05-09T06:37:52.777Z,11.80
2023-05-09T06:40:20.170Z,11.80
2023-05-09T06:42:47.616Z,11.90
2023-05-09T06:45:16.057Z,11.90
2023-05-09T06:47:43.857Z,12.00
2023-05-09T06:50:11.262Z,12.10
2023-05-09T06:52:38.980Z,12.20
2023-05-09T06:55:06.994Z,12.20
2023-05-09T06:57:34.800Z,12.30
2023-05-09T07:00:02.420Z,12.40
2023-05-09T07:02:30.743Z,12.40
2023-05-09T07:04:58.235Z,12.50
2023-05-09T07:07:25.847Z,12.60
2023-05-09T07:09:57.960Z,12.60
2023-05-09T07:12:32.365Z,12.70
2023-05-09T07:14:59.931Z,12.70
2023-05-09T07:17:27.636Z,12.80
2023-05-09T07:19:54.935Z,12.80
2023-05-09T07:22:22.533Z,12.80
2023-05-09T07:24:50.812Z,12.90
2023-05-09T07:27:18.438Z,13.00
2023-05-09T07:29:45.758Z,12.90
2023-05-09T07:32:13.306Z,13.00
2023-05-09T07:34:40.646Z,13.10
2023-05-09T07:37:08.129Z,13.10
2023-05-09T07:39:35.519Z,13.20
2023-05-09T07:42:03.695Z,13.20
2023-05-09T07:44:31.274Z,13.20
2023-05-09T07:47:02.613Z,13.30
2023-05-09T07:49:29.827Z,13.40
2023-05-09T07:51:57.655Z,13.40
2023-05-09T07:54:24.911Z,13.40
2023-05-09T07:56:53.168Z,13.40
2023-05-09T07:59:20.841Z,13.40
2023-05-09T08:01:48.741Z,13.40
2023-05-09T08:04:16.062Z,13.50
2023-05-09T08:06:43.736Z,13.60
2023-05-09T08:09:10.949Z,13.70
2023-05-09T08:11:38.658Z,13.60
2023-05-09T08:14:05.880Z,13.70
2023-05-09T08:16:33.478Z,13.80
2023-05-09T08:19:01.304Z,13.80
2023-05-09T08:21:28.811Z,13.80
2023-05-09T08:23:56.918Z,13.80
2023-05-09T08:26:24.441Z,13.90
2023-05-09T08:28:51.863Z,13.90
2023-05-09T08:31:19.484Z,14.00
2023-05-09T08:33:46.687Z,14.00
2023-05-09T08:36:14.275Z,13.90
2023-05-09T08:38:41.806Z,14.00
2023-05-09T08:41:09.428Z,14.00
2023-05-09T08:43:38.272Z,14.00
2023-05-09T08:46:09.314Z,14.00
2023-05-09T08:48:39.713Z,14.10
2023-05-09T08:51:07.775Z,14.20
2023-05-09T08:53:35.433Z,14.30
2023-05-09T08:56:06.320Z,14.30
2023-05-09T08:58:34.249Z,14.40
2023-05-09T09:01:08.286Z,14.40
2023-05-09T09:03:38.326Z,14.40
2023-05-09T11:19:52.664Z,14.40
2023-05-09T11:22:23.183Z,16.00
2023-05-09T11:25:06.571Z,16.00
2023-05-09T11:27:44.862Z,16.10
2023-05-09T11:30:17.002Z,16.10
2023-05-09T11:32:55.615Z,16.20
2023-05-09T11:35:23.891Z,16.10
2023-05-09T11:38:05.595Z,16.10
2023-05-09T11:40:34.535Z,16.20
2023-05-09T11:43:02.510Z,16.30
2023-05-09T11:45:32.549Z,16.20
2023-05-09T11:48:04.196Z,16.30
2023-05-09T11:50:31.599Z,16.40
2023-05-09T11:52:59.120Z,16.40
2023-05-09T11:55:29.912Z,16.40
2023-05-09T11:57:59.442Z,16.40
2023-05-09T12:00:27.120Z,16.40
2023-05-09T12:02:55.034Z,16.50
2023-05-09T12:05:26.269Z,16.60
2023-05-09T12:08:04.680Z,16.60
2023-05-09T12:10:32.649Z,16.70
2023-05-09T12:13:05.677Z,16.70
2023-05-09T12:15:39.057Z,16.70
2023-05-09T12:18:09.831Z,16.80
2023-05-09T12:20:55.079Z,16.80
2023-05-09T12:23:23.647Z,16.80
2023-05-09T12:25:55.755Z,16.80
2023-05-09T12:28:27.471Z,16.90
2023-05-09T12:30:55.296Z,16.80
2023-05-09T12:33:23.828Z,16.80
2023-05-09T12:36:10.344Z,16.80
2023-05-09T12:38:38.930Z,16.90
2023-05-09T12:41:15.478Z,16.90
2023-05-09T12:43:57.773Z,16.90
2023-05-09T12:46:25.755Z,16.80
2023-05-09T12:48:54.486Z,16.80
2023-05-09T12:51:22.874Z,16.90
2023-05-09T12:53:50.842Z,16.80
2023-05-09T12:56:20.480Z,16.80
2023-05-09T12:58:52.670Z,16.80
2023-05-09T13:01:21.457Z,17.00
2023-05-09T13:04:07.655Z,17.00
2023-05-09T13:06:36.351Z,17.00
2023-05-09T13:11:37.804Z,17.10
2023-05-09T13:14:05.664Z,17.00
2023-05-09T13:16:33.024Z,17.10
2023-05-09T13:19:01.772Z,17.10
2023-05-09T13:21:29.109Z,17.10
2023-05-09T13:23:56.609Z,17.20
2023-05-09T13:26:24.008Z,17.10
2023-05-09T13:28:51.981Z,17.20
2023-05-09T13:31:19.489Z,17.30
2023-05-09T13:33:48.700Z,17.30
2023-05-09T13:36:18.251Z,17.30
2023-05-09T13:38:47.256Z,17.30
2023-05-09T13:41:20.216Z,17.20
2023-05-09T13:43:48.122Z,17.20
2023-05-09T13:46:15.943Z,17.30
2023-05-09T13:48:44.783Z,17.30
2023-05-09T13:51:12.137Z,17.30
2023-05-09T13:53:39.662Z,17.30
2023-05-09T13:56:09.565Z,17.30
2023-05-09T13:58:37.390Z,17.40
2023-05-09T14:01:04.927Z,17.50
2023-05-09T14:03:33.768Z,17.60
2023-05-09T14:06:01.282Z,17.60
2023-05-09T14:08:29.641Z,17.70
2023-05-09T14:10:56.861Z,17.60
2023-05-09T14:35:37.399Z,17.80
2023-05-09T14:38:06.534Z,31.50
2023-05-09T14:40:33.763Z,35.20
2023-05-09T14:43:04.454Z,35.60
2023-05-09T14:48:01.490Z,36.30
2023-05-09T15:25:17.100Z,40.00
2023-05-09T15:27:44.874Z,44.70
2023-05-09T15:30:12.778Z,44.90
2023-05-09T15:37:36.883Z,44.90
2023-05-09T15:40:09.601Z,46.10
2023-05-09T15:52:30.925Z,45.90
2023-05-09T15:54:59.441Z,40.50
2023-05-09T15:57:27.034Z,41.00
2023-05-09T15:59:57.258Z,42.00
2023-05-09T16:04:52.514Z,43.10
2023-05-09T16:07:20.728Z,41.90
2023-05-09T16:09:48.282Z,41.60
2023-05-09T16:12:15.949Z,42.10
2023-05-09T16:14:43.247Z,42.30
2023-05-09T16:17:11.498Z,43.20
2023-05-09T16:19:38.941Z,42.40
2023-05-09T16:22:06.653Z,42.00
2023-05-09T16:24:33.955Z,41.20
2023-05-09T16:27:01.481Z,41.00
2023-05-09T16:29:28.817Z,40.90
2023-05-09T16:31:56.457Z,36.70
2023-05-09T16:34:23.648Z,35.40
2023-05-09T16:36:52.295Z,36.10
2023-05-09T16:39:19.552Z,35.10
2023-05-09T16:41:47.082Z,35.30
2023-05-09T16:44:15.425Z,37.20
2023-05-09T16:46:43.340Z,38.20
2023-05-09T16:49:11.123Z,38.90
2023-05-09T16:51:38.782Z,38.30
2023-05-09T16:54:06.089Z,38.90
2023-05-09T16:56:34.361Z,38.20
2023-05-09T16:59:01.702Z,38.50
2023-05-09T17:01:29.496Z,38.50
2023-05-09T17:03:57.197Z,38.00
2023-05-09T17:06:25.169Z,38.40
2023-05-09T17:08:52.747Z,38.10
2023-05-09T17:11:21.230Z,37.30
2023-05-09T17:13:48.446Z,36.90
2023-05-09T17:16:16.286Z,36.60
2023-05-09T17:18:47.381Z,32.70
2023-05-09T17:21:15.911Z,31.70
2023-05-09T17:23:43.624Z,31.70
2023-05-09T17:26:11.710Z,31.70
2023-05-09T17:31:08.488Z,30.80
2023-05-09T17:33:35.826Z,29.90
2023-05-09T17:36:03.901Z,28.20
2023-05-09T17:38:31.248Z,25.40
2023-05-09T17:40:58.784Z,23.00
2023-05-09T17:43:27.855Z,21.30
2023-05-09T17:45:55.440Z,20.20
2023-05-09T17:48:22.914Z,19.70
2023-05-09T17:50:50.937Z,19.20
2023-05-09T17:53:18.457Z,18.70
2023-05-09T17:55:46.037Z,18.40
2023-05-09T17:58:15.252Z,18.00
2023-05-09T18:00:42.876Z,17.20
2023-05-09T18:03:10.444Z,17.10
2023-05-09T18:05:38.635Z,16.70
2023-05-09T18:08:05.833Z,16.40
2023-05-09T18:10:33.588Z,16.30
2023-05-09T18:13:00.910Z,16.00
2023-05-09T18:15:28.411Z,15.80
2023-05-09T18:17:57.755Z,15.60
2023-05-09T18:20:25.806Z,15.40
2023-05-09T18:22:54.299Z,15.30
2023-05-09T18:25:21.912Z,15.10
2023-05-09T18:27:49.255Z,14.90
2023-05-09T18:30:18.713Z,14.80
2023-05-09T18:32:46.036Z,14.70
2023-05-09T18:35:13.533Z,14.50
2023-05-09T18:37:40.753Z,14.40
2023-05-09T18:40:14.694Z,14.30
2023-05-09T18:42:42.434Z,14.20
2023-05-09T18:45:10.501Z,14.10
2023-05-09T18:47:38.298Z,14.00
2023-05-09T18:50:07.259Z,14.00
2023-05-09T18:52:34.585Z,13.80
2023-05-09T18:55:02.111Z,13.70
2023-05-09T18:57:29.380Z,13.60
2023-05-09T18:59:57.003Z,13.50
2023-05-09T19:02:24.239Z,13.40
2023-05-09T19:04:52.456Z,13.30
2023-05-09T19:07:19.689Z,13.30
2023-05-09T19:09:47.724Z,13.20
2023-05-09T19:12:16.420Z,13.10
2023-05-09T19:14:44.061Z,13.00
2023-05-09T19:17:11.355Z,13.00
2023-05-09T19:19:39.441Z,12.90
2023-05-09T19:22:07.136Z,12.80
2023-05-09T19:24:35.274Z,12.70
2023-05-09T19:27:04.242Z,12.70
2023-05-09T19:29:31.837Z,12.60
2023-05-09T19:31:59.244Z,12.50
2023-05-09T19:34:27.429Z,12.50
2023-05-09T19:36:54.812Z,12.50
2023-05-09T19:39:22.371Z,12.50
2023-05-09T19:41:49.976Z,12.40
2023-05-09T19:44:17.534Z,12.30
2023-05-09T19:46:44.825Z,12.30
2023-05-09T19:49:13.130Z,12.30
2023-05-09T19:51:40.510Z,12.20
2023-05-09T19:54:08.521Z,12.20
2023-05-09T19:56:35.775Z,12.10
2023-05-09T19:59:03.502Z,12.10
2023-05-09T20:01:31.299Z,12.10
2023-05-09T20:03:59.324Z,12.00
2023-05-09T20:06:26.752Z,12.00
2023-05-09T20:08:54.279Z,12.00
2023-05-09T20:11:22.202Z,11.90
2023-05-09T20:13:49.908Z,11.90
2023-05-09T20:16:17.338Z,11.80
2023-05-09T20:18:44.996Z,11.80
2023-05-09T20:21:12.220Z,11.80
2023-05-09T20:23:40.036Z,11.70
2023-05-09T20:26:07.629Z,11.70
2023-05-09T20:28:35.187Z,11.70
2023-05-09T20:31:02.494Z,11.70
2023-05-09T20:33:30.370Z,11.60
2023-05-09T20:35:57.691Z,11.60
2023-05-09T20:38:25.379Z,11.50
2023-05-09T20:40:52.545Z,11.50
2023-05-09T20:43:20.498Z,11.40
2023-05-09T20:45:48.070Z,11.40
2023-05-09T20:48:15.705Z,11.30
2023-05-09T20:50:43.014Z,11.30
2023-05-09T20:53:10.678Z,11.30
2023-05-09T20:55:38.226Z,11.20
2023-05-09T20:58:05.712Z,11.20
2023-05-09T21:00:33.766Z,11.20
2023-05-09T21:03:01.504Z,11.10
2023-05-09T21:05:28.735Z,11.10
2023-05-09T21:07:59.707Z,11.10
2023-05-09T21:10:27.032Z,11.10
2023-05-09T21:12:54.609Z,11.10
2023-05-09T21:15:21.901Z,11.00
2023-05-09T21:17:49.597Z,11.00
2023-05-09T21:20:17.248Z,11.00
2023-05-09T21:22:44.956Z,10.90
2023-05-09T21:25:12.613Z,10.80
2023-05-09T21:27:40.252Z,10.80
2023-05-09T21:30:08.484Z,10.70
2023-05-09T21:32:36.055Z,10.70
2023-05-09T21:35:04.114Z,10.60
2023-05-09T21:37:31.695Z,10.60
2023-05-09T21:39:58.902Z,10.60
2023-05-09T21:42:26.688Z,10.60
2023-05-09T21:44:53.956Z,10.60
2023-05-09T21:47:21.768Z,10.60
2023-05-09T21:49:49.444Z,10.60
2023-05-09T21:52:18.461Z,10.50
2023-05-09T21:54:45.828Z,10.50
2023-05-09T21:57:13.478Z,10.50
2023-05-09T21:59:40.914Z,10.40
2023-05-09T22:02:08.437Z,10.40
2023-05-09T22:04:35.869Z,10.30
2023-05-09T22:07:03.450Z,10.30
2023-05-09T22:09:31.107Z,10.30
2023-05-09T22:11:58.777Z,10.20
2023-05-09T22:14:26.276Z,10.20
2023-05-09T22:16:53.900Z,10.20
2023-05-09T22:19:21.122Z,10.10
2023-05-09T22:21:48.998Z,10.10
2023-05-09T22:24:16.420Z,10.10
2023-05-09T22:26:44.135Z,10.00
2023-05-09T22:29:11.581Z,10.00
2023-05-09T22:31:39.045Z,9.90
2023-05-09T22:34:06.449Z,9.90
2023-05-09T22:36:33.973Z,9.90
2023-05-09T22:39:01.501Z,9.90
2023-05-09T22:41:28.965Z,9.80
2023-05-09T22:43:56.625Z,9.80
2023-05-09T22:46:24.337Z,9.80
2023-05-09T22:48:51.648Z,9.80
2023-05-09T22:51:19.486Z,9.70
2023-05-09T22:53:46.765Z,9.70
2023-05-09T22:56:14.332Z,9.60
2023-05-09T22:58:41.600Z,9.60
2023-05-09T23:01:09.150Z,9.60
2023-05-09T23:03:36.531Z,9.60
2023-05-09T23:06:04.422Z,9.60
2023-05-09T23:08:31.641Z,9.50
2023-05-09T23:10:59.211Z,9.50
2023-05-09T23:13:26.637Z,9.50
2023-05-09T23:15:54.199Z,9.40
2023-05-09T23:18:23.769Z,9.40
2023-05-09T23:20:51.685Z,9.40
2023-05-09T23:23:18.980Z,9.30
2023-05-09T23:25:46.442Z,9.30
2023-05-09T23:28:13.845Z,9.30
2023-05-09T23:30:41.514Z,9.30
2023-05-09T23:33:08.859Z,9.20
2023-05-09T23:35:36.570Z,9.20
2023-05-09T23:38:04.673Z,9.10
2023-05-09T23:40:32.221Z,9.20
2023-05-09T23:42:59.418Z,9.20
2023-05-09T23:45:26.949Z,9.10
2023-05-09T23:47:54.298Z,9.10
2023-05-09T23:50:22.250Z,9.10
2023-05-09T23:52:51.263Z,9.10
2023-05-09T23:55:18.801Z,9.10
2023-05-09T23:57:46.176Z,9.00
